createdAt,value
2022-12-14T00:01:27.752Z,22.33
2022-12-14T00:04:13.190Z,21.38
2022-12-14T00:06:58.975Z,22.48
2022-12-14T00:09:45.695Z,21.52
2022-12-14T00:12:31.446Z,22.80
2022-12-14T00:15:17.098Z,22.95
2022-12-14T00:18:03.106Z,19.30
2022-12-14T00:20:48.659Z,21.67
2022-12-14T00:23:38.926Z,20.13
2022-12-14T00:26:30.914Z,18.67
2022-12-14T00:29:16.965Z,18.45
2022-12-14T00:32:02.562Z,19.02
2022-12-14T00:34:48.327Z,18.40
2022-12-14T00:37:34.062Z,17.40
2022-12-14T00:40:19.895Z,18.55
2022-12-14T00:43:05.566Z,17.70
2022-12-14T00:45:51.639Z,17.65
2022-12-14T00:48:37.146Z,18.30
2022-12-14T00:51:22.626Z,17.98
2022-12-14T00:54:07.976Z,19.63
2022-12-14T00:56:53.624Z,19.48
2022-12-14T00:59:39.386Z,19.60
2022-12-14T01:02:25.243Z,19.58
2022-12-14T01:05:11.289Z,20.00
2022-12-14T01:07:56.778Z,21.75
2022-12-14T01:10:42.302Z,21.52
2022-12-14T01:13:28.266Z,22.27
2022-12-14T01:16:15.149Z,21.85
2022-12-14T01:19:01.449Z,23.83
2022-12-14T01:21:47.249Z,21.13
2022-12-14T01:24:33.196Z,20.48
2022-12-14T01:27:19.245Z,21.70
2022-12-14T01:30:05.258Z,19.35
2022-12-14T01:32:50.729Z,21.17
2022-12-14T01:35:36.197Z,21.15
2022-12-14T01:38:21.987Z,22.33
2022-12-14T01:41:08.555Z,19.70
2022-12-14T01:44:24.538Z,21.85
2022-12-14T01:47:13.117Z,20.70
2022-12-14T01:50:10.848Z,21.50
2022-12-14T01:53:01.550Z,21.30
2022-12-14T01:55:51.831Z,20.98
2022-12-14T02:01:23.098Z,21.80
2022-12-14T02:04:11.171Z,21.50
2022-12-14T02:07:01.111Z,24.08
2022-12-14T02:09:48.113Z,22.00
2022-12-14T02:12:45.395Z,21.80
2022-12-14T02:15:32.055Z,19.60
2022-12-14T02:18:22.480Z,19.85
2022-12-14T02:21:42.488Z,21.08
2022-12-14T02:24:39.972Z,19.23
2022-12-14T02:27:50.313Z,20.67
2022-12-14T02:30:42.709Z,19.13
2022-12-14T02:33:30.944Z,21.02
2022-12-14T02:36:55.282Z,20.58
2022-12-14T02:39:53.097Z,21.05
2022-12-14T02:42:47.701Z,20.90
2022-12-14T02:45:33.184Z,22.48
2022-12-14T02:48:24.564Z,21.10
2022-12-14T02:51:53.845Z,22.17
2022-12-14T02:54:53.242Z,21.73
2022-12-14T02:57:47.574Z,21.73
2022-12-14T03:00:36.511Z,21.20
2022-12-14T03:03:22.461Z,21.60
2022-12-14T03:06:15.762Z,21.33
2022-12-14T03:09:09.073Z,22.73
2022-12-14T03:12:11.949Z,22.40
2022-12-14T03:14:59.645Z,22.27
2022-12-14T03:17:49.256Z,22.45
2022-12-14T03:20:37.596Z,23.60
2022-12-14T03:23:27.423Z,23.42
2022-12-14T03:26:32.440Z,22.77
2022-12-14T03:29:25.401Z,20.73
2022-12-14T03:32:13.958Z,23.20
2022-12-14T03:35:11.009Z,24.35
2022-12-14T03:37:56.284Z,25.52
2022-12-14T03:40:55.764Z,23.00
2022-12-14T03:44:06.981Z,23.05
2022-12-14T03:47:28.629Z,24.23
2022-12-14T03:50:24.986Z,23.33
2022-12-14T03:53:16.590Z,21.95
2022-12-14T03:56:13.918Z,21.25
2022-12-14T03:59:08.543Z,22.23
2022-12-14T04:02:26.726Z,21.38
2022-12-14T04:05:45.468Z,20.95
2022-12-14T04:08:55.434Z,22.35
2022-12-14T04:12:07.927Z,21.25
2022-12-14T04:15:26.185Z,21.70
2022-12-14T04:18:42.917Z,20.15
2022-12-14T04:21:36.557Z,20.10
2022-12-14T04:25:01.572Z,21.15
2022-12-14T04:28:09.261Z,20.63
2022-12-14T04:30:59.971Z,21.88
2022-12-14T04:33:52.918Z,20.27
2022-12-14T04:36:58.928Z,20.05
2022-12-14T04:39:49.868Z,21.15
2022-12-14T04:42:42.154Z,20.77
2022-12-14T04:45:40.891Z,22.30
2022-12-14T04:48:45.076Z,21.08
2022-12-14T04:52:01.910Z,20.85
2022-12-14T04:57:51.636Z,21.42
2022-12-14T05:00:47.809Z,23.50
2022-12-14T05:03:43.708Z,22.25
2022-12-14T05:06:35.322Z,20.15
2022-12-14T05:09:44.182Z,20.17
2022-12-14T05:12:48.593Z,20.63
2022-12-14T05:15:46.774Z,20.60
2022-12-14T05:18:35.119Z,20.98
2022-12-14T05:21:39.572Z,20.88
2022-12-14T05:24:24.934Z,20.75
2022-12-14T05:27:10.509Z,20.63
2022-12-14T05:29:58.333Z,19.38
2022-12-14T05:32:44.148Z,21.45
2022-12-14T05:35:29.910Z,21.95
2022-12-14T05:38:15.463Z,21.08
2022-12-14T05:41:01.367Z,22.17
2022-12-14T05:43:47.068Z,23.10
2022-12-14T05:46:34.952Z,23.92
2022-12-14T05:49:20.701Z,22.13
2022-12-14T05:52:06.658Z,23.33
2022-12-14T05:54:57.185Z,22.88
2022-12-14T05:57:46.533Z,22.05
2022-12-14T06:00:32.194Z,22.13
2022-12-14T06:03:17.988Z,23.65
2022-12-14T06:06:06.279Z,24.58
2022-12-14T06:08:51.669Z,23.73
2022-12-14T06:11:39.949Z,23.75
2022-12-14T06:14:25.678Z,23.98
2022-12-14T06:17:12.652Z,25.20
2022-12-14T06:19:58.358Z,25.17
2022-12-14T06:22:47.544Z,24.45
2022-12-14T06:25:33.587Z,26.35
2022-12-14T06:28:19.252Z,23.63
2022-12-14T06:31:06.328Z,24.75
2022-12-14T06:33:53.262Z,25.30
2022-12-14T06:36:40.905Z,24.63
2022-12-14T06:39:26.728Z,25.48
2022-12-14T06:42:11.957Z,27.08
2022-12-14T06:44:57.490Z,25.48
2022-12-14T06:47:43.233Z,26.85
2022-12-14T06:50:29.032Z,25.77
2022-12-14T06:53:14.858Z,23.27
2022-12-14T06:56:11.853Z,25.08
2022-12-14T06:58:59.072Z,24.05
2022-12-14T07:01:46.141Z,25.77
2022-12-14T07:04:35.802Z,25.10
2022-12-14T07:07:21.438Z,24.20
2022-12-14T07:10:08.747Z,24.85
2022-12-14T07:12:55.707Z,25.58
2022-12-14T07:15:41.650Z,26.38
2022-12-14T07:18:28.164Z,27.35
2022-12-14T07:21:17.308Z,26.17
2022-12-14T07:24:03.377Z,25.35
2022-12-14T07:26:49.408Z,26.52
2022-12-14T07:29:35.206Z,28.83
2022-12-14T07:32:20.796Z,27.58
2022-12-14T07:35:09.442Z,26.27
2022-12-14T07:37:58.957Z,27.65
2022-12-14T07:40:45.312Z,23.75
2022-12-14T07:43:31.058Z,23.60
2022-12-14T07:46:20.664Z,23.15
2022-12-14T07:49:06.714Z,24.27
2022-12-14T07:51:52.969Z,23.05
2022-12-14T07:54:38.726Z,24.70
2022-12-14T07:57:24.272Z,26.55
2022-12-14T08:00:10.540Z,24.33
2022-12-14T08:02:59.188Z,24.70
2022-12-14T08:05:44.470Z,25.05
2022-12-14T08:08:30.386Z,25.33
2022-12-14T08:11:17.400Z,28.27
2022-12-14T08:14:08.469Z,27.20
2022-12-14T08:16:54.013Z,27.05
2022-12-14T08:19:39.650Z,53.53
2022-12-14T08:22:25.202Z,33.63
2022-12-14T08:25:10.989Z,30.60
2022-12-14T08:27:56.623Z,41.45
2022-12-14T08:30:42.390Z,39.08
2022-12-14T08:33:28.025Z,42.00
2022-12-14T08:36:16.653Z,44.70
2022-12-14T08:39:06.363Z,41.40
2022-12-14T08:41:51.968Z,32.35
2022-12-14T08:44:37.471Z,28.98
2022-12-14T08:47:23.040Z,28.27
2022-12-14T08:50:09.542Z,40.63
2022-12-14T08:52:55.475Z,37.78
2022-12-14T08:55:41.190Z,35.05
2022-12-14T08:58:27.101Z,33.15
2022-12-14T09:01:15.897Z,33.22
2022-12-14T09:04:07.968Z,30.30
2022-12-14T09:06:53.577Z,31.15
2022-12-14T09:09:39.287Z,29.83
2022-12-14T09:12:25.302Z,30.25
2022-12-14T09:15:11.400Z,32.95
2022-12-14T09:17:56.734Z,32.08
2022-12-14T09:20:43.452Z,31.35
2022-12-14T09:23:30.910Z,29.85
2022-12-14T09:26:19.659Z,32.10
2022-12-14T09:29:05.379Z,36.83
2022-12-14T09:31:50.782Z,34.33
2022-12-14T09:34:36.585Z,35.80
2022-12-14T09:37:22.220Z,37.08
2022-12-14T09:40:10.365Z,35.58
2022-12-14T09:43:04.669Z,32.72
2022-12-14T09:45:58.372Z,30.73
2022-12-14T09:48:44.687Z,28.90
2022-12-14T09:51:36.800Z,30.77
2022-12-14T09:54:27.615Z,30.77
2022-12-14T09:57:37.220Z,31.15
2022-12-14T10:00:22.738Z,30.17
2022-12-14T10:03:23.783Z,28.65
2022-12-14T10:06:21.766Z,28.25
2022-12-14T10:09:21.235Z,27.27
2022-12-14T10:12:34.204Z,26.67
2022-12-14T10:15:32.146Z,27.08
2022-12-14T10:21:44.568Z,26.55
2022-12-14T10:24:45.018Z,33.92
2022-12-14T10:30:36.462Z,28.27
2022-12-14T10:33:21.987Z,26.95
2022-12-14T10:36:28.792Z,25.60
2022-12-14T10:39:30.226Z,26.73
2022-12-14T10:42:26.095Z,28.02
2022-12-14T10:48:34.599Z,25.25
2022-12-14T10:51:50.263Z,26.40
2022-12-14T10:54:43.368Z,26.90
2022-12-14T10:57:28.702Z,25.98
2022-12-14T11:00:22.799Z,25.13
2022-12-14T11:03:15.785Z,27.30
2022-12-14T11:06:20.021Z,25.00
2022-12-14T11:09:21.551Z,25.23
2022-12-14T11:12:28.044Z,23.27
2022-12-14T11:15:25.965Z,23.80
2022-12-14T11:18:17.793Z,23.70
2022-12-14T11:21:05.664Z,23.38
2022-12-14T11:23:54.656Z,23.52
2022-12-14T11:26:42.559Z,27.00
2022-12-14T11:29:36.655Z,27.65
2022-12-14T11:32:25.728Z,26.55
2022-12-14T11:35:18.329Z,26.45
2022-12-14T11:38:05.703Z,26.33
2022-12-14T11:40:52.527Z,25.60
2022-12-14T11:43:41.144Z,31.25
2022-12-14T11:47:08.432Z,29.83
2022-12-14T11:49:57.822Z,26.42
2022-12-14T11:52:43.281Z,26.08
2022-12-14T11:55:29.211Z,27.38
2022-12-14T11:58:32.272Z,26.65
2022-12-14T12:01:24.371Z,27.38
2022-12-14T12:04:15.246Z,26.85
2022-12-14T12:07:24.257Z,25.45
2022-12-14T12:10:12.937Z,28.88
2022-12-14T12:13:01.440Z,28.53
2022-12-14T12:15:54.630Z,29.27
2022-12-14T12:18:59.202Z,29.73
2022-12-14T12:21:45.313Z,29.67
2022-12-14T12:28:23.594Z,29.30
2022-12-14T12:31:14.863Z,30.73
2022-12-14T12:34:12.140Z,30.58
2022-12-14T12:37:25.784Z,29.67
2022-12-14T12:40:29.210Z,30.20
2022-12-14T12:43:14.543Z,28.45
2022-12-14T12:46:05.631Z,29.90
2022-12-14T12:48:58.382Z,29.40
2022-12-14T12:51:59.983Z,29.60
2022-12-14T12:54:57.136Z,28.88
2022-12-14T12:57:47.400Z,28.58
2022-12-14T13:00:33.824Z,29.95
2022-12-14T13:03:37.408Z,29.17
2022-12-14T13:06:31.038Z,30.30
2022-12-14T13:09:21.501Z,30.98
2022-12-14T13:12:14.548Z,30.92
2022-12-14T13:15:02.606Z,27.63
2022-12-14T13:17:53.080Z,28.30
2022-12-14T13:20:38.602Z,28.52
2022-12-14T13:23:45.448Z,28.20
2022-12-14T13:26:57.826Z,28.98
2022-12-14T13:30:02.351Z,27.70
2022-12-14T13:33:22.112Z,29.13
2022-12-14T13:36:28.634Z,28.92
2022-12-14T13:40:09.448Z,28.92
2022-12-14T13:43:06.936Z,27.23
2022-12-14T13:45:54.689Z,29.48
2022-12-14T13:48:41.577Z,27.00
2022-12-14T13:51:36.142Z,28.83
2022-12-14T13:54:27.893Z,27.00
2022-12-14T13:57:21.855Z,29.77
2022-12-14T14:00:08.043Z,27.65
2022-12-14T14:02:57.360Z,28.73
2022-12-14T14:05:45.687Z,32.25
2022-12-14T14:08:41.730Z,31.23
2022-12-14T14:11:37.069Z,31.33
2022-12-14T14:15:11.276Z,29.35
2022-12-14T14:18:12.413Z,27.90
2022-12-14T14:21:13.114Z,31.63
2022-12-14T14:24:17.948Z,33.53
2022-12-14T14:27:18.349Z,32.10
2022-12-14T14:30:24.928Z,29.95
2022-12-14T14:33:47.362Z,31.67
2022-12-14T14:36:36.123Z,29.80
2022-12-14T14:39:56.121Z,30.00
2022-12-14T14:42:51.576Z,29.58
2022-12-14T14:45:53.108Z,30.10
2022-12-14T14:48:55.494Z,31.02
2022-12-14T14:51:40.940Z,31.25
2022-12-14T14:55:10.719Z,31.55
2022-12-14T14:57:57.537Z,31.17
2022-12-14T15:01:00.127Z,30.45
2022-12-14T15:03:45.583Z,32.72
2022-12-14T15:06:43.721Z,31.80
2022-12-14T15:09:39.189Z,30.45
2022-12-14T15:12:41.826Z,32.28
2022-12-14T15:15:38.680Z,30.15
2022-12-14T15:18:32.896Z,28.70
2022-12-14T15:21:19.322Z,28.83
2022-12-14T15:24:05.258Z,29.67
2022-12-14T15:26:50.917Z,34.17
2022-12-14T15:29:37.398Z,30.95
2022-12-14T15:32:24.262Z,29.88
2022-12-14T15:35:18.619Z,29.85
2022-12-14T15:38:16.634Z,27.27
2022-12-14T15:41:05.844Z,29.13
2022-12-14T15:43:56.459Z,29.20
2022-12-14T15:46:53.278Z,28.95
2022-12-14T15:49:39.538Z,29.02
2022-12-14T15:52:29.944Z,27.70
2022-12-14T15:58:26.817Z,26.95
2022-12-14T16:01:34.548Z,27.27
2022-12-14T16:04:22.953Z,28.98
2022-12-14T16:07:34.959Z,27.45
2022-12-14T16:10:34.366Z,27.73
2022-12-14T16:13:25.358Z,27.92
2022-12-14T16:16:13.302Z,27.25
2022-12-14T16:19:20.229Z,28.02
2022-12-14T16:22:28.079Z,27.20
2022-12-14T16:25:19.112Z,26.65
2022-12-14T16:28:33.905Z,27.30
2022-12-14T16:31:21.438Z,27.50
2022-12-14T16:34:18.757Z,29.20
2022-12-14T16:37:31.625Z,37.95
2022-12-14T16:40:40.834Z,38.38
2022-12-14T16:43:55.984Z,30.13
2022-12-14T16:46:50.388Z,28.58
2022-12-14T16:49:50.158Z,30.98
2022-12-14T16:55:26.285Z,32.58
2022-12-14T16:58:17.473Z,31.92
2022-12-14T17:01:07.047Z,31.73
2022-12-14T17:04:00.782Z,35.00
2022-12-14T17:06:51.154Z,32.17
2022-12-14T17:09:37.189Z,32.25
2022-12-14T17:12:24.520Z,32.65
2022-12-14T17:15:16.867Z,32.47
2022-12-14T17:18:04.427Z,30.17
2022-12-14T17:20:50.242Z,32.30
2022-12-14T17:23:38.756Z,34.42
2022-12-14T17:26:28.173Z,36.13
2022-12-14T17:29:25.811Z,37.90
2022-12-14T17:32:13.978Z,38.00
2022-12-14T17:35:00.719Z,37.58
2022-12-14T17:37:46.575Z,35.33
2022-12-14T17:40:32.567Z,36.15
2022-12-14T17:43:24.637Z,38.50
2022-12-14T17:46:10.170Z,41.80
2022-12-14T17:48:55.925Z,39.78
2022-12-14T17:51:44.687Z,41.55
2022-12-14T17:54:31.326Z,46.67
2022-12-14T17:57:20.227Z,37.67
2022-12-14T18:00:24.939Z,35.42
2022-12-14T18:03:12.320Z,33.72
2022-12-14T18:05:59.260Z,32.92
2022-12-14T18:08:46.023Z,35.58
2022-12-14T18:11:31.884Z,36.17
2022-12-14T18:14:17.455Z,38.30
2022-12-14T18:17:06.764Z,34.97
2022-12-14T18:19:57.014Z,34.78
2022-12-14T18:22:43.367Z,33.92
2022-12-14T18:25:43.225Z,37.33
2022-12-14T18:28:33.598Z,33.80
2022-12-14T18:31:32.742Z,33.10
2022-12-14T18:34:18.668Z,32.50
2022-12-14T18:37:04.779Z,30.88
2022-12-14T18:39:50.671Z,31.55
2022-12-14T18:42:36.596Z,31.27
2022-12-14T18:45:31.240Z,30.80
2022-12-14T18:48:16.887Z,30.20
2022-12-14T18:51:02.738Z,30.60
2022-12-14T18:53:50.792Z,30.25
2022-12-14T18:56:36.580Z,30.30
2022-12-14T18:59:22.249Z,30.77
2022-12-14T19:02:13.608Z,30.25
2022-12-14T19:04:59.106Z,30.40
2022-12-14T19:07:45.224Z,28.92
2022-12-14T19:10:33.093Z,30.20
2022-12-14T19:13:26.003Z,28.88
2022-12-14T19:16:12.550Z,31.73
2022-12-14T19:18:59.625Z,28.90
2022-12-14T19:21:44.985Z,28.05
2022-12-14T19:24:30.784Z,27.92
2022-12-14T19:27:35.637Z,32.80
2022-12-14T19:30:23.267Z,29.00
2022-12-14T19:33:10.449Z,27.10
2022-12-14T19:35:56.468Z,25.85
2022-12-14T19:38:41.846Z,25.52
2022-12-14T19:41:27.451Z,24.20
2022-12-14T19:44:13.403Z,27.60
2022-12-14T19:46:58.771Z,29.92
2022-12-14T19:49:44.340Z,31.00
2022-12-14T19:52:30.043Z,29.38
2022-12-14T19:55:15.666Z,29.58
2022-12-14T19:58:01.369Z,29.40
2022-12-14T20:00:46.924Z,30.65
2022-12-14T20:03:33.007Z,31.00
2022-12-14T20:06:18.704Z,31.67
2022-12-14T20:09:06.119Z,34.00
2022-12-14T20:11:51.660Z,33.72
2022-12-14T20:14:40.081Z,35.70
2022-12-14T20:17:26.994Z,35.75
2022-12-14T20:20:12.508Z,35.03
2022-12-14T20:22:57.819Z,29.42
2022-12-14T20:25:43.545Z,29.10
2022-12-14T20:28:29.680Z,29.92
2022-12-14T20:31:15.695Z,29.25
2022-12-14T20:34:04.288Z,27.50
2022-12-14T20:36:49.799Z,29.75
2022-12-14T20:39:35.557Z,29.02
2022-12-14T20:42:21.268Z,29.10
2022-12-14T20:45:10.483Z,26.13
2022-12-14T20:48:14.293Z,25.52
2022-12-14T20:51:07.026Z,28.02
2022-12-14T20:53:54.170Z,27.90
2022-12-14T20:56:40.912Z,28.48
2022-12-14T20:59:27.516Z,25.75
2022-12-14T21:02:18.589Z,24.90
2022-12-14T21:05:04.670Z,25.08
2022-12-14T21:07:50.285Z,23.23
2022-12-14T21:10:36.165Z,23.35
2022-12-14T21:13:21.819Z,24.63
2022-12-14T21:16:09.829Z,22.00
2022-12-14T21:18:55.062Z,23.55
2022-12-14T21:21:41.924Z,22.38
2022-12-14T21:25:00.975Z,21.73
2022-12-14T21:27:35.702Z,21.55
2022-12-14T21:30:21.152Z,20.73
2022-12-14T21:33:06.734Z,21.42
2022-12-14T21:35:52.246Z,20.17
2022-12-14T21:38:38.693Z,20.88
2022-12-14T21:41:43.828Z,20.35
2022-12-14T21:44:30.891Z,21.10
2022-12-14T21:47:21.026Z,21.08
2022-12-14T21:50:07.142Z,22.88
2022-12-14T21:52:52.651Z,21.55
2022-12-14T21:55:38.265Z,22.65
2022-12-14T21:58:24.657Z,21.08
2022-12-14T22:01:10.222Z,22.25
2022-12-14T22:03:55.839Z,24.10
2022-12-14T22:06:41.408Z,22.48
2022-12-14T22:09:27.284Z,23.75
2022-12-14T22:12:13.503Z,28.38
2022-12-14T22:14:59.024Z,29.83
2022-12-14T22:17:44.600Z,26.23
2022-12-14T22:20:30.667Z,24.13
2022-12-14T22:23:16.270Z,23.40
2022-12-14T22:26:01.816Z,22.33
2022-12-14T22:28:53.895Z,21.90
2022-12-14T22:31:39.165Z,21.80
2022-12-14T22:34:24.650Z,20.02
2022-12-14T22:37:12.864Z,19.02
2022-12-14T22:39:58.428Z,19.75
2022-12-14T22:42:44.677Z,18.88
2022-12-14T22:45:30.568Z,17.38
2022-12-14T22:48:16.772Z,15.93
2022-12-14T22:51:08.964Z,16.00
2022-12-14T22:53:54.801Z,17.10
2022-12-14T22:56:44.714Z,17.20
2022-12-14T23:02:23.644Z,16.52
2022-12-14T23:05:10.346Z,17.60
2022-12-14T23:07:55.854Z,16.83
2022-12-14T23:11:00.999Z,17.50
2022-12-14T23:14:04.682Z,17.33
2022-12-14T23:17:08.897Z,16.05
2022-12-14T23:20:12.915Z,17.77
2022-12-14T23:23:17.149Z,16.60
2022-12-14T23:26:22.882Z,17.70
2022-12-14T23:29:26.998Z,18.75
2022-12-14T23:32:31.128Z,16.60
2022-12-14T23:35:35.329Z,18.88
2022-12-14T23:38:39.332Z,17.40
2022-12-14T23:41:43.431Z,17.10
2022-12-14T23:44:47.673Z,17.52
2022-12-14T23:47:51.964Z,16.88
2022-12-14T23:50:56.378Z,17.35
2022-12-14T23:54:00.335Z,16.55
2022-12-14T23:57:04.352Z,16.88
